Terminal Aerodrome Forecast
Issued by NWS

Home | Current Version | Previous Version | Text Only | Print | Product List | Glossary On
Versions: 1 2 3 4 5 6 7 8 9 10 11 12 13 14 15 16 17 18 19 20 21 22 23 24 25 26 27
000
FTUS41 KOKX 220800 AAA
TAFHPN
TAF AMD
KHPN 220802Z 2208/2306 04006KT 6SM -RA BR BKN012
     FM221100 01011KT 6SM BR VCSH BKN010
     FM221400 36013G20KT 6SM BR VCSH BKN015
     FM230000 35014G22KT 4SM -RA BR BKN010
      AMD NOT SKED=

USA.gov is the U.S. government's official web portal to all federal, state and local government web resources and services.